Impacts METAR Board
IDs:

KCPT - Cleburne Muni, TX, US

Updated at: 1300 UTC 13 Dec 2019
Potential Impact None Slight Moderate High
Time 13/01Z 13/02Z 13/03Z 13/04Z 13/05Z 13/06Z 13/07Z 13/08Z 13/09Z 13/10Z 13/11Z 13/12Z 13/13Z
Temp48 48 46 46 46 45 45 43 43 41 41 41 41
Dewpt41 43 43 43 45 45 45 43 43 41 41 41 41
Altim30.07 30.05 30.05 30.04 30.03 30.01 29.99 29.96 29.94 29.94 29.92 29.91 29.90
VIS10 10 10 10 10 10 10 10 10 10 10 10 10
CIG-- -- -- -- -- -- -- -- -- -- -- -- --
CoverCLRCLRCLRCLRCLRCLRCLRCLRCLRCLRCLRCLRCLR
FltCatVFRVFRVFRVFRVFRVFRVFRVFRVFRVFRVFRVFRVFR
WX--------------------------
WDir150160170170160150170150160180160180180
WSpd8 8 7 9 8 7 6 6 8 6 6 7 6
WGst-- -- -- -- -- -- -- -- -- -- -- -- --
Raw hourly METARs
KCPT 130055Z AUTO 15008KT 10SM CLR 09/05 A3007 RMK AO2 PWINO
KCPT 130155Z AUTO 16008KT 10SM CLR 09/06 A3005 RMK AO2 PWINO
KCPT 130255Z AUTO 17007KT 10SM CLR 08/06 A3005 RMK AO2 PWINO
KCPT 130355Z AUTO 17009KT 10SM CLR 08/06 A3004 RMK AO2 PWINO
KCPT 130455Z AUTO 16008KT 10SM CLR 08/07 A3003 RMK AO2 PWINO
KCPT 130555Z AUTO 15007KT 10SM CLR 07/07 A3001 RMK AO2 PWINO
KCPT 130655Z AUTO 17006KT 10SM CLR 07/07 A2999 RMK AO2 PWINO
KCPT 130755Z AUTO 15006KT 10SM CLR 06/06 A2996 RMK AO2 PWINO
KCPT 130855Z AUTO 16008KT 10SM CLR 06/06 A2994 RMK AO2 PWINO
KCPT 130955Z AUTO 18006KT 10SM CLR 05/05 A2994 RMK AO2 PWINO
KCPT 131055Z AUTO 16006KT 10SM CLR 05/05 A2992 RMK AO2 PWINO
KCPT 131155Z AUTO 18007KT 10SM CLR 05/05 A2991 RMK AO2 PWINO
KCPT 131255Z AUTO 18006KT 10SM CLR 05/05 A2990 RMK AO2 PWINO



Page loaded:  13:49 UTC  |   05:49 AM Pacific  |   06:49 AM Mountain  |   07:49 AM Central  |   08:49 AM Eastern

 

ADVISORIES

FORECASTS

FORECASTS

OBSERVATIONS

USER TOOLS

ABOUT US